KHUM/HUM METAR and TAF weather

Enter ICAO airport designator
Station Type Date Time Source
KHUM METAR 2019/10/21 06:15 UTC NOAA

KHUM 210615Z AUTO 17006KT 10SM CLR 25/22 A2988 RMK AO2 T02450222


Station Type Date Time Source
KHUM Decoded METAR 2019/10/21 06:15 UTC NOAA

Houma-Terrebonne, LA, United States (KHUM) 29-34N 090-40W
Oct 21, 2019 - 02:15 AM EDT / 2019.10.21 0615 UTC
Wind: from the S (170 degrees) at 7 MPH (6 KT):0
Visibility: 10 mile(s):0
Sky conditions: clear
Temperature: 76.1 F (24.5 C)
Dew Point: 72.0 F (22.2 C)
Relative Humidity: 87%
Pressure (altimeter): 29.88 in. Hg (1011 hPa)
ob: KHUM 210615Z AUTO 17006KT 10SM CLR 25/22 A2988 RMK AO2 T02450222
cycle: 6

Station Type Date Time Source
KHUM TAF 2019/10/21 06:22 UTC NOAA

TAF KHUM 210520Z 2106/2206 14006KT P6SM SCT110
TEMPO 2112/2115 4SM TSRA OVC025CB
FM211800 21009KT 4SM SHRA VCTS OVC090CB
FM220300 VRB04KT P6SM SHRA OVC025
FM220500 32005KT P6SM SHRA BKN090

Example: see airport list